Time;durP1;ratioP1;P1;durP2;ratioP2;P2;SDS_P1;SDS_P2;PMS_P1;PMS_P2;Temp;Humidity;BMP_temperature;BMP_pressure;BME280_temperature;BME280_humidity;BME280_pressure;Samples;Min_cycle;Max_cycle;Signal;HPM_P1;HPM_P2
2022/09/25 00:00:08;;;;;;;;;;;15.90;99.90;;;;;;5032202;28;19944;-83
2022/09/25 00:02:33;;;;;;;;;;;15.90;99.90;;;;;;5030733;28;19955;-83
2022/09/25 00:04:59;;;;;;;;;;;15.90;99.90;;;;;;5032025;28;19921;-83
2022/09/25 00:07:24;;;;;;;;;;;15.90;99.90;;;;;;5030634;28;19932;-83
2022/09/25 00:09:50;;;;;;;;;;;15.90;99.90;;;;;;5032063;28;19915;-84
2022/09/25 00:12:15;;;;;;;;;;;15.90;99.90;;;;;;5032090;28;19909;-84
2022/09/25 00:14:41;;;;;;;;;;;15.90;99.90;;;;;;5031998;28;19979;-84
2022/09/25 00:17:06;;;;;;;;;;;15.90;99.90;;;;;;5031714;28;19909;-83
2022/09/25 00:19:50;;;;;;;;;;;16.00;99.90;;;;;;5031878;28;19910;-83
2022/09/25 00:22:20;;;;;;;;;;;16.00;99.90;;;;;;5035660;28;20285;-84
2022/09/25 00:24:46;;;;;;;;;;;16.00;99.90;;;;;;5034286;28;20308;-83
2022/09/25 00:27:11;;;;;;;;;;;16.10;99.90;;;;;;5035583;28;19910;-84
2022/09/25 00:29:38;;;;;;;;;;;16.10;99.90;;;;;;5035627;28;19976;-83
2022/09/25 00:32:04;;;;;;;;;;;16.10;99.90;;;;;;5034144;28;19917;-84
2022/09/25 00:34:29;;;;;;;;;;;16.10;99.90;;;;;;5034143;28;19917;-84
2022/09/25 00:36:55;;;;;;;;;;;16.20;99.90;;;;;;5034050;28;20364;-84
2022/09/25 00:39:21;;;;;;;;;;;16.20;99.90;;;;;;5034091;28;19916;-84
2022/09/25 00:41:46;;;;;;;;;;;16.20;99.90;;;;;;5035413;28;19910;-83
2022/09/25 00:44:30;;;;;;;;;;;16.20;99.90;;;;;;5034114;28;19913;-84
2022/09/25 00:46:56;;;;;;;;;;;16.20;99.90;;;;;;5033821;28;19909;-84
2022/09/25 00:49:24;;;;;;;;;;;16.20;99.90;;;;;;5035410;28;19916;-83
2022/09/25 00:51:51;;;;;;;;;;;16.20;99.90;;;;;;5033890;28;20004;-84
2022/09/25 00:54:28;;;;;;;;;;;16.30;99.90;;;;;;5035241;28;20366;-84
2022/09/25 00:56:54;;;;;;;;;;;16.30;99.90;;;;;;5033634;28;20288;-83
2022/09/25 00:59:32;;;;;;;;;;;16.30;99.90;;;;;;5033841;28;19913;-84
2022/09/25 01:01:58;;;;;;;;;;;16.30;99.90;;;;;;5034796;28;19940;-84
2022/09/25 01:04:25;;;;;;;;;;;16.30;99.90;;;;;;5035004;28;20432;-84
2022/09/25 01:06:51;;;;;;;;;;;16.30;99.90;;;;;;5033419;28;20296;-84
2022/09/25 01:09:17;;;;;;;;;;;16.30;99.90;;;;;;5033677;28;19915;-84
2022/09/25 01:11:44;;;;;;;;;;;16.30;99.90;;;;;;5034958;28;20438;-84
2022/09/25 01:14:10;;;;;;;;;;;16.30;99.90;;;;;;5034818;28;19913;-84
2022/09/25 01:16:54;;;;;;;;;;;16.20;99.90;;;;;;5033285;28;19997;-84
2022/09/25 01:19:20;;;;;;;;;;;16.20;99.90;;;;;;5033437;28;19948;-84
2022/09/25 01:21:54;;;;;;;;;;;16.10;99.90;;;;;;5033287;28;20383;-83
2022/09/25 01:24:35;;;;;;;;;;;16.20;99.90;;;;;;5033271;28;20384;-84
2022/09/25 01:27:23;;;;;;;;;;;16.10;99.90;;;;;;5033125;28;19916;-83
2022/09/25 01:29:58;;;;;;;;;;;16.10;99.90;;;;;;5034322;28;20376;-85
2022/09/25 01:32:26;;;;;;;;;;;16.10;99.90;;;;;;5032078;28;20055;-84
2022/09/25 01:35:01;;;;;;;;;;;16.00;99.90;;;;;;5034311;28;20369;-84
2022/09/25 01:37:44;;;;;;;;;;;16.00;99.90;;;;;;5032728;28;19917;-84
2022/09/25 01:40:15;;;;;;;;;;;16.00;99.90;;;;;;5034282;28;20007;-84
2022/09/25 01:42:43;;;;;;;;;;;16.00;99.90;;;;;;5032840;28;20369;-84
2022/09/25 01:45:13;;;;;;;;;;;16.00;99.90;;;;;;5034147;28;19947;-84
2022/09/25 01:47:39;;;;;;;;;;;15.90;99.90;;;;;;5032658;28;19913;-83
2022/09/25 01:50:11;;;;;;;;;;;15.90;99.90;;;;;;5032805;28;19913;-83
2022/09/25 01:52:39;;;;;;;;;;;16.00;99.90;;;;;;5034167;28;19971;-83
2022/09/25 01:55:16;;;;;;;;;;;16.00;99.90;;;;;;5032737;28;19916;-84
2022/09/25 01:57:51;;;;;;;;;;;16.00;99.90;;;;;;5033867;28;19909;-84
2022/09/25 02:00:18;;;;;;;;;;;16.00;99.90;;;;;;5032592;28;19910;-84
2022/09/25 02:02:53;;;;;;;;;;;16.00;99.90;;;;;;5033796;28;20334;-84
2022/09/25 02:05:41;;;;;;;;;;;16.00;99.90;;;;;;5033874;28;19917;-84
2022/09/25 02:08:09;;;;;;;;;;;16.10;99.90;;;;;;5032522;28;20372;-83
2022/09/25 02:10:36;;;;;;;;;;;16.00;99.90;;;;;;5032584;28;19917;-83
2022/09/25 02:13:12;;;;;;;;;;;16.00;99.90;;;;;;5033616;28;19959;-84
2022/09/25 02:15:41;;;;;;;;;;;15.90;99.90;;;;;;5033445;28;19916;-84
2022/09/25 02:21:03;;;;;;;;;;;16.00;99.90;;;;;;5033928;28;19955;-84
2022/09/25 02:23:31;;;;;;;;;;;15.90;99.90;;;;;;5032155;28;19960;-84
2022/09/25 02:26:00;;;;;;;;;;;15.90;99.90;;;;;;5031990;28;19909;-84
2022/09/25 02:28:25;;;;;;;;;;;15.90;99.90;;;;;;5032141;28;20520;-84
2022/09/25 02:30:53;;;;;;;;;;;15.90;99.90;;;;;;5032064;28;19955;-85
2022/09/25 02:33:18;;;;;;;;;;;16.00;99.90;;;;;;5031905;28;19947;-84
2022/09/25 02:35:43;;;;;;;;;;;15.90;99.90;;;;;;5031789;28;20327;-84
2022/09/25 02:38:09;;;;;;;;;;;15.90;99.90;;;;;;5031938;28;20438;-83
2022/09/25 02:40:44;;;;;;;;;;;15.90;99.90;;;;;;5033243;28;19947;-84
2022/09/25 02:43:10;;;;;;;;;;;15.90;99.90;;;;;;5031639;28;19915;-83
2022/09/25 02:45:49;;;;;;;;;;;15.90;99.90;;;;;;5031527;28;20000;-84
2022/09/25 02:48:40;;;;;;;;;;;15.80;99.90;;;;;;5031953;28;19909;-83
2022/09/25 02:51:10;;;;;;;;;;;15.90;99.90;;;;;;5031664;28;20011;-84
2022/09/25 02:53:51;;;;;;;;;;;15.90;99.90;;;;;;5031739;28;19959;-84
2022/09/25 02:56:27;;;;;;;;;;;15.80;99.90;;;;;;5031219;28;19910;-84
2022/09/25 02:58:54;;;;;;;;;;;15.70;99.90;;;;;;5031758;28;19910;-84
2022/09/25 03:01:21;;;;;;;;;;;15.60;99.90;;;;;;5032785;28;19909;-84
2022/09/25 03:03:48;;;;;;;;;;;15.60;99.90;;;;;;5031520;28;19913;-83
2022/09/25 03:06:14;;;;;;;;;;;15.50;99.90;;;;;;5031347;28;20396;-84
2022/09/25 03:08:50;;;;;;;;;;;15.50;99.90;;;;;;5031611;28;19916;-83
2022/09/25 03:11:17;;;;;;;;;;;15.60;99.90;;;;;;5033041;28;20423;-83
2022/09/25 03:13:42;;;;;;;;;;;15.60;99.90;;;;;;5031636;28;19909;-83
2022/09/25 03:16:14;;;;;;;;;;;15.60;99.90;;;;;;5031169;28;19916;-84
2022/09/25 03:18:39;;;;;;;;;;;15.70;99.90;;;;;;5032825;28;19909;-83
2022/09/25 03:21:05;;;;;;;;;;;15.70;99.90;;;;;;5031460;28;19913;-83
2022/09/25 03:23:34;;;;;;;;;;;15.60;99.90;;;;;;5032494;28;19909;-83
2022/09/25 03:25:59;;;;;;;;;;;15.70;99.90;;;;;;5031195;28;20387;-84
2022/09/25 03:28:25;;;;;;;;;;;15.70;99.90;;;;;;5031382;28;19948;-84
2022/09/25 03:30:54;;;;;;;;;;;15.70;99.90;;;;;;5032624;28;19992;-83
2022/09/25 03:33:19;;;;;;;;;;;15.60;99.90;;;;;;5031062;28;19928;-84
2022/09/25 03:35:45;;;;;;;;;;;15.60;99.90;;;;;;5031018;28;19914;-83
2022/09/25 03:38:11;;;;;;;;;;;15.60;99.90;;;;;;5031138;28;20450;-83
2022/09/25 03:40:36;;;;;;;;;;;15.60;99.90;;;;;;5032427;28;20415;-84
2022/09/25 03:43:02;;;;;;;;;;;15.60;99.90;;;;;;5032111;28;19909;-83
2022/09/25 03:45:27;;;;;;;;;;;15.50;99.90;;;;;;5030999;28;19952;-83
2022/09/25 03:47:53;;;;;;;;;;;15.50;99.90;;;;;;5030936;28;19909;-83
2022/09/25 03:50:18;;;;;;;;;;;15.40;99.90;;;;;;5032335;28;19921;-84
2022/09/25 03:52:44;;;;;;;;;;;15.30;99.90;;;;;;5030993;28;19910;-84
2022/09/25 03:55:10;;;;;;;;;;;15.20;99.90;;;;;;5033234;28;19916;-84
2022/09/25 03:57:36;;;;;;;;;;;15.10;99.90;;;;;;5034849;28;19909;-85
2022/09/25 04:00:02;;;;;;;;;;;15.10;99.90;;;;;;5036268;28;19948;-83
2022/09/25 04:02:28;;;;;;;;;;;15.00;99.90;;;;;;5036148;28;19916;-84
2022/09/25 04:04:54;;;;;;;;;;;15.00;99.90;;;;;;5034708;28;20270;-84
2022/09/25 04:07:20;;;;;;;;;;;15.00;99.90;;;;;;5034695;28;19913;-84
2022/09/25 04:09:45;;;;;;;;;;;14.90;99.90;;;;;;5036180;28;20002;-84
2022/09/25 04:12:11;;;;;;;;;;;14.90;99.90;;;;;;5034652;28;20311;-84
2022/09/25 04:14:36;;;;;;;;;;;14.90;99.90;;;;;;5034846;28;19909;-85
2022/09/25 04:17:02;;;;;;;;;;;15.00;99.90;;;;;;5034441;28;19909;-84
2022/09/25 04:19:27;;;;;;;;;;;14.90;99.90;;;;;;5034683;28;19909;-84
2022/09/25 04:21:53;;;;;;;;;;;14.90;99.90;;;;;;5035899;28;19910;-83
2022/09/25 04:27:14;;;;;;;;;;;14.90;99.90;;;;;;5030929;28;20427;-84
2022/09/25 04:29:41;;;;;;;;;;;14.90;99.90;;;;;;5034623;28;19909;-84
2022/09/25 04:34:50;;;;;;;;;;;14.90;99.90;;;;;;5035963;28;20391;-84
2022/09/25 04:37:16;;;;;;;;;;;15.00;99.90;;;;;;5037622;28;19913;-84
2022/09/25 04:39:41;;;;;;;;;;;15.00;99.90;;;;;;5036568;28;19909;-85
2022/09/25 04:42:07;;;;;;;;;;;14.90;99.90;;;;;;5036070;28;19913;-84
2022/09/25 04:44:32;;;;;;;;;;;14.90;99.90;;;;;;5035841;28;19977;-84
2022/09/25 04:46:58;;;;;;;;;;;14.80;99.90;;;;;;5035735;28;20266;-84
2022/09/25 04:49:23;;;;;;;;;;;14.80;99.90;;;;;;5035864;28;19909;-85
2022/09/25 04:51:48;;;;;;;;;;;14.80;99.90;;;;;;5035885;28;19916;-83
2022/09/25 04:54:15;;;;;;;;;;;14.80;99.90;;;;;;5035636;28;19976;-84
2022/09/25 04:56:43;;;;;;;;;;;14.80;99.90;;;;;;5036738;28;19909;-83
2022/09/25 04:59:10;;;;;;;;;;;15.00;99.90;;;;;;5036129;28;19913;-84
2022/09/25 05:01:36;;;;;;;;;;;14.90;99.90;;;;;;5036938;28;19996;-84
2022/09/25 05:04:01;;;;;;;;;;;14.90;99.90;;;;;;5035689;28;19988;-84
2022/09/25 05:06:28;;;;;;;;;;;14.90;99.90;;;;;;5033928;28;20372;-84
2022/09/25 05:08:53;;;;;;;;;;;14.90;99.90;;;;;;5035431;28;19915;-84
2022/09/25 05:11:20;;;;;;;;;;;15.00;99.90;;;;;;5035195;28;19995;-85
2022/09/25 05:13:48;;;;;;;;;;;14.90;99.90;;;;;;5035443;28;20007;-84
2022/09/25 05:16:14;;;;;;;;;;;14.90;99.90;;;;;;5035292;28;20527;-84
2022/09/25 05:18:39;;;;;;;;;;;14.80;99.90;;;;;;5036574;28;19909;-84
2022/09/25 05:21:05;;;;;;;;;;;14.70;99.90;;;;;;5035234;28;19916;-84
2022/09/25 05:23:30;;;;;;;;;;;14.80;99.90;;;;;;5035581;28;19990;-84
2022/09/25 05:26:02;;;;;;;;;;;14.80;99.90;;;;;;5036110;28;20357;-84
2022/09/25 05:28:28;;;;;;;;;;;14.70;99.90;;;;;;5036213;28;19958;-83
2022/09/25 05:30:53;;;;;;;;;;;14.60;99.90;;;;;;5035127;28;19909;-84
2022/09/25 05:33:19;;;;;;;;;;;14.60;99.90;;;;;;5034477;28;19924;-84
2022/09/25 05:35:45;;;;;;;;;;;14.60;99.90;;;;;;5034430;28;19936;-84
2022/09/25 05:38:11;;;;;;;;;;;14.70;99.90;;;;;;5034830;28;20357;-83
2022/09/25 05:40:39;;;;;;;;;;;14.60;99.90;;;;;;5034777;28;19916;-84
2022/09/25 05:43:05;;;;;;;;;;;14.60;99.90;;;;;;5034230;28;19913;-83
2022/09/25 05:45:32;;;;;;;;;;;14.60;99.90;;;;;;5034065;28;19913;-85
2022/09/25 05:48:01;;;;;;;;;;;14.50;99.90;;;;;;5033909;28;20387;-84
2022/09/25 05:50:27;;;;;;;;;;;14.60;99.90;;;;;;5034087;28;20456;-83
2022/09/25 05:52:59;;;;;;;;;;;14.50;99.90;;;;;;5035040;28;19952;-83
2022/09/25 05:55:25;;;;;;;;;;;14.50;99.90;;;;;;5034932;28;19917;-84
2022/09/25 05:57:50;;;;;;;;;;;14.40;99.90;;;;;;5034559;28;19909;-84
2022/09/25 06:00:16;;;;;;;;;;;14.40;99.90;;;;;;5033699;28;19916;-84
2022/09/25 06:02:41;;;;;;;;;;;14.30;99.90;;;;;;5033542;28;19916;-83
2022/09/25 06:05:07;;;;;;;;;;;14.30;99.90;;;;;;5034909;28;20281;-84
2022/09/25 06:07:33;;;;;;;;;;;14.20;99.90;;;;;;5034918;28;19962;-84
2022/09/25 06:09:59;;;;;;;;;;;14.20;99.90;;;;;;5033742;28;20015;-83
2022/09/25 06:12:27;;;;;;;;;;;14.20;99.90;;;;;;5034746;28;19909;-83
2022/09/25 06:14:52;;;;;;;;;;;14.20;99.90;;;;;;5033342;28;19909;-83
2022/09/25 06:17:19;;;;;;;;;;;14.10;99.90;;;;;;5032489;28;19920;-83
2022/09/25 06:19:44;;;;;;;;;;;14.10;99.90;;;;;;5033005;28;19916;-84
2022/09/25 06:22:10;;;;;;;;;;;14.10;99.90;;;;;;5034008;28;20003;-84
2022/09/25 06:24:35;;;;;;;;;;;14.10;99.90;;;;;;5033039;28;19975;-82
2022/09/25 06:27:00;;;;;;;;;;;14.00;99.90;;;;;;5033468;28;19909;-83
2022/09/25 06:29:26;;;;;;;;;;;14.00;99.90;;;;;;5034451;28;19909;-84
2022/09/25 06:31:52;;;;;;;;;;;13.90;99.90;;;;;;5034638;28;19956;-83
2022/09/25 06:34:18;;;;;;;;;;;13.90;99.90;;;;;;5032824;28;19909;-84
2022/09/25 06:36:43;;;;;;;;;;;13.90;99.90;;;;;;5034161;28;19909;-83
2022/09/25 06:39:09;;;;;;;;;;;13.90;99.90;;;;;;5032757;28;20365;-83
2022/09/25 06:41:35;;;;;;;;;;;13.90;99.90;;;;;;5032751;28;20357;-83
2022/09/25 06:44:01;;;;;;;;;;;13.80;99.90;;;;;;5032591;28;19913;-84
2022/09/25 06:46:26;;;;;;;;;;;13.90;99.90;;;;;;5033526;28;20047;-84
2022/09/25 06:48:58;;;;;;;;;;;13.90;99.90;;;;;;5032364;28;19916;-83
2022/09/25 06:51:27;;;;;;;;;;;13.90;99.90;;;;;;5032499;28;19913;-83
2022/09/25 06:53:53;;;;;;;;;;;13.90;99.90;;;;;;5032460;28;19967;-84
2022/09/25 06:56:19;;;;;;;;;;;14.00;99.90;;;;;;5032160;28;19913;-83
2022/09/25 06:58:46;;;;;;;;;;;14.00;99.90;;;;;;5031442;28;21430;-84
2022/09/25 07:01:12;;;;;;;;;;;14.20;99.90;;;;;;5033607;28;19917;-85
2022/09/25 07:03:44;;;;;;;;;;;14.30;99.90;;;;;;5032484;28;20382;-83
2022/09/25 07:06:20;;;;;;;;;;;14.40;99.90;;;;;;5031799;28;19979;-84
2022/09/25 07:08:49;;;;;;;;;;;14.50;99.90;;;;;;5032143;28;20383;-83
2022/09/25 07:11:25;;;;;;;;;;;14.60;99.90;;;;;;5033609;28;19995;-85
2022/09/25 07:13:51;;;;;;;;;;;14.70;99.90;;;;;;5032003;28;19956;-83
2022/09/25 07:16:18;;;;;;;;;;;14.90;99.90;;;;;;5031830;28;20292;-84
2022/09/25 07:18:44;;;;;;;;;;;15.00;99.90;;;;;;5033197;28;20380;-83
2022/09/25 07:21:11;;;;;;;;;;;15.10;99.90;;;;;;5031959;28;20026;-85
2022/09/25 07:23:37;;;;;;;;;;;15.20;99.90;;;;;;5033182;28;19910;-83
2022/09/25 07:26:05;;;;;;;;;;;15.30;99.90;;;;;;5032869;28;19909;-85
2022/09/25 07:28:30;;;;;;;;;;;15.40;99.90;;;;;;5031296;28;19909;-85
2022/09/25 07:30:56;;;;;;;;;;;15.50;99.90;;;;;;5031522;28;19932;-85
2022/09/25 07:33:23;;;;;;;;;;;15.70;99.90;;;;;;5031704;28;19971;-84
2022/09/25 07:35:50;;;;;;;;;;;15.90;99.90;;;;;;5032925;28;19917;-84
2022/09/25 07:38:15;;;;;;;;;;;16.00;99.90;;;;;;5031505;28;19909;-83
2022/09/25 07:40:41;;;;;;;;;;;16.10;99.90;;;;;;5031676;28;20431;-84
2022/09/25 07:43:07;;;;;;;;;;;16.30;99.90;;;;;;5031677;28;19909;-84
2022/09/25 07:45:32;;;;;;;;;;;16.50;99.90;;;;;;5031492;28;19913;-84
2022/09/25 07:47:59;;;;;;;;;;;16.80;99.90;;;;;;5032942;28;19948;-84
2022/09/25 07:50:25;;;;;;;;;;;17.10;99.90;;;;;;5031631;28;20280;-85
2022/09/25 07:52:52;;;;;;;;;;;17.20;99.90;;;;;;5033097;28;19951;-84
2022/09/25 07:55:17;;;;;;;;;;;17.20;99.90;;;;;;5032241;28;19910;-85
2022/09/25 07:57:42;;;;;;;;;;;17.10;99.90;;;;;;5031318;28;20360;-84
2022/09/25 08:00:08;;;;;;;;;;;17.10;99.90;;;;;;5031912;28;19913;-84
2022/09/25 08:02:34;;;;;;;;;;;17.10;99.90;;;;;;5031575;28;19939;-84
2022/09/25 08:05:00;;;;;;;;;;;17.10;99.90;;;;;;5031263;28;20024;-84
2022/09/25 08:07:26;;;;;;;;;;;17.20;99.90;;;;;;5031313;28;19909;-85
2022/09/25 08:09:52;;;;;;;;;;;17.10;99.90;;;;;;5032454;28;19909;-84
2022/09/25 08:12:17;;;;;;;;;;;17.20;99.90;;;;;;5031397;28;20022;-85
2022/09/25 08:14:43;;;;;;;;;;;17.30;99.90;;;;;;5031044;28;19999;-84
2022/09/25 08:17:08;;;;;;;;;;;17.40;99.90;;;;;;5031289;28;19913;-84
2022/09/25 08:19:34;;;;;;;;;;;17.40;99.90;;;;;;5031158;28;20502;-83
2022/09/25 08:21:59;;;;;;;;;;;17.40;99.90;;;;;;5032808;28;19916;-83
2022/09/25 08:24:25;;;;;;;;;;;17.30;99.90;;;;;;5032283;28;20364;-85
2022/09/25 08:26:50;;;;;;;;;;;17.10;99.90;;;;;;5030674;28;19909;-83
2022/09/25 08:29:16;;;;;;;;;;;16.90;99.90;;;;;;5033064;28;19909;-84
2022/09/25 08:31:42;;;;;;;;;;;17.00;99.90;;;;;;5033586;28;19917;-82
2022/09/25 08:34:09;;;;;;;;;;;16.90;99.90;;;;;;5032674;28;19909;-83
2022/09/25 08:36:34;;;;;;;;;;;16.70;99.90;;;;;;5033334;28;19909;-84
2022/09/25 08:39:00;;;;;;;;;;;16.80;99.90;;;;;;5034096;28;19909;-82
2022/09/25 08:41:30;;;;;;;;;;;16.60;99.90;;;;;;5035121;28;19937;-82
2022/09/25 08:43:55;;;;;;;;;;;16.70;99.90;;;;;;5036068;28;19946;-82
2022/09/25 08:49:29;;;;;;;;;;;16.70;99.90;;;;;;5037303;28;19920;-84
2022/09/25 08:51:58;;;;;;;;;;;17.00;99.90;;;;;;5034691;28;19913;-86
2022/09/25 08:54:25;;;;;;;;;;;17.20;99.90;;;;;;5039414;28;20431;-84
2022/09/25 08:57:11;;;;;;;;;;;17.20;99.90;;;;;;5018986;28;19909;-84
2022/09/25 08:59:38;;;;;;;;;;;17.10;99.90;;;;;;5016872;28;19909;-83
2022/09/25 09:02:20;;;;;;;;;;;17.10;99.90;;;;;;5016908;28;20017;-84
2022/09/25 09:04:45;;;;;;;;;;;17.10;99.90;;;;;;5014825;28;20575;-85
2022/09/25 09:07:14;;;;;;;;;;;17.00;99.90;;;;;;5014583;28;19909;-84
2022/09/25 09:09:53;;;;;;;;;;;16.80;99.90;;;;;;5016383;28;20316;-85
2022/09/25 09:12:24;;;;;;;;;;;16.90;99.90;;;;;;5015523;28;20313;-85
2022/09/25 09:14:51;;;;;;;;;;;17.10;99.90;;;;;;5015942;28;19969;-83
2022/09/25 09:17:17;;;;;;;;;;;17.00;99.90;;;;;;5016159;28;20366;-85
2022/09/25 09:19:46;;;;;;;;;;;17.10;99.90;;;;;;5015792;28;19916;-87
2022/09/25 09:22:13;;;;;;;;;;;17.10;99.90;;;;;;5016212;28;19910;-85
2022/09/25 09:24:42;;;;;;;;;;;17.10;99.90;;;;;;5022649;28;19967;-85
2022/09/25 09:27:10;;;;;;;;;;;17.40;99.90;;;;;;5038184;28;20289;-84
2022/09/25 09:29:41;;;;;;;;;;;17.80;99.90;;;;;;5034384;28;19910;-84
2022/09/25 09:32:25;;;;;;;;;;;18.30;99.90;;;;;;5037045;28;19917;-84
2022/09/25 09:34:52;;;;;;;;;;;18.60;99.90;;;;;;5034225;28;19910;-84
2022/09/25 09:37:20;;;;;;;;;;;18.90;99.90;;;;;;5033983;28;19952;-84
2022/09/25 09:40:01;;;;;;;;;;;19.10;99.90;;;;;;5038399;28;19909;-84
2022/09/25 09:42:36;;;;;;;;;;;19.50;99.90;;;;;;5035471;28;19909;-84
2022/09/25 09:45:21;;;;;;;;;;;19.90;99.90;;;;;;5035314;28;19920;-84
2022/09/25 09:48:10;;;;;;;;;;;20.40;99.90;;;;;;5034500;28;19909;-84
2022/09/25 09:50:39;;;;;;;;;;;20.30;99.90;;;;;;5028501;28;19913;-84
2022/09/25 09:53:06;;;;;;;;;;;19.90;99.90;;;;;;5034500;28;19917;-84
2022/09/25 09:55:41;;;;;;;;;;;19.90;99.90;;;;;;5035563;28;19909;-84
2022/09/25 09:58:16;;;;;;;;;;;20.70;99.90;;;;;;5034715;28;19916;-85
2022/09/25 10:00:43;;;;;;;;;;;21.50;99.90;;;;;;5035114;28;20333;-84
2022/09/25 10:03:11;;;;;;;;;;;22.00;99.90;;;;;;5035162;28;20019;-84
2022/09/25 10:05:52;;;;;;;;;;;22.10;99.90;;;;;;5035271;28;19913;-84
2022/09/25 10:08:17;;;;;;;;;;;22.70;99.90;;;;;;5035688;28;20438;-85
2022/09/25 10:10:46;;;;;;;;;;;23.60;99.90;;;;;;5034134;28;19909;-85
2022/09/25 10:13:31;;;;;;;;;;;24.20;98.00;;;;;;5036456;28;19945;-85
2022/09/25 10:15:59;;;;;;;;;;;23.90;98.40;;;;;;5034970;28;19909;-85
2022/09/25 10:18:27;;;;;;;;;;;23.50;99.30;;;;;;5034320;28;19916;-84
2022/09/25 10:20:58;;;;;;;;;;;23.30;99.70;;;;;;5032449;28;19953;-84
2022/09/25 10:23:26;;;;;;;;;;;22.70;96.50;;;;;;5034585;28;19909;-85
2022/09/25 10:25:52;;;;;;;;;;;22.40;97.80;;;;;;5032614;28;19976;-84
2022/09/25 10:28:33;;;;;;;;;;;22.10;98.30;;;;;;5034580;28;20328;-84
2022/09/25 10:31:00;;;;;;;;;;;21.90;98.30;;;;;;5034316;28;20038;-84
2022/09/25 10:33:28;;;;;;;;;;;21.70;95.80;;;;;;5075875;22;19963;-83
2022/09/25 10:35:53;;;;;;;;;;;21.50;97.40;;;;;;5038239;28;19967;-83
2022/09/25 10:38:40;;;;;;;;;;;21.30;98.60;;;;;;5036732;28;19913;-83
2022/09/25 10:41:09;;;;;;;;;;;21.40;99.90;;;;;;5034321;28;19910;-83
2022/09/25 10:43:48;;;;;;;;;;;21.20;98.60;;;;;;5034244;28;19908;-84
2022/09/25 10:46:14;;;;;;;;;;;20.80;99.00;;;;;;5033905;28;20055;-83
2022/09/25 10:51:25;;;;;;;;;;;21.20;98.40;;;;;;5034544;28;19987;-82
2022/09/25 10:53:52;;;;;;;;;;;20.90;96.70;;;;;;5032500;28;19909;-82
2022/09/25 10:56:26;;;;;;;;;;;20.50;98.00;;;;;;5032395;28;19959;-83
2022/09/25 10:58:53;;;;;;;;;;;20.40;99.70;;;;;;5032526;28;20000;-83
2022/09/25 11:01:19;;;;;;;;;;;20.20;99.90;;;;;;5032261;28;19920;-84
2022/09/25 11:03:53;;;;;;;;;;;20.20;99.90;;;;;;5032832;28;20013;-84
2022/09/25 11:06:27;;;;;;;;;;;20.20;98.50;;;;;;5032926;28;19936;-85
2022/09/25 11:08:58;;;;;;;;;;;20.40;99.60;;;;;;5033727;28;19909;-84
2022/09/25 11:11:26;;;;;;;;;;;20.10;97.40;;;;;;5034703;28;19909;-84
2022/09/25 11:13:54;;;;;;;;;;;20.00;99.70;;;;;;5034891;28;19937;-83
2022/09/25 11:16:20;;;;;;;;;;;20.00;99.90;;;;;;5033412;28;19955;-83
2022/09/25 11:18:48;;;;;;;;;;;20.20;99.90;;;;;;5032608;28;19913;-83
2022/09/25 11:21:17;;;;;;;;;;;20.20;97.80;;;;;;5032458;28;20284;-83
2022/09/25 11:23:50;;;;;;;;;;;20.10;97.80;;;;;;5032619;28;20347;-83
2022/09/25 11:26:18;;;;;;;;;;;20.00;99.10;;;;;;5031997;28;19909;-83
2022/09/25 11:29:06;;;;;;;;;;;19.80;99.50;;;;;;5033544;28;19909;-82
2022/09/25 11:31:34;;;;;;;;;;;19.80;99.90;;;;;;5033635;28;19921;-83
2022/09/25 11:34:11;;;;;;;;;;;19.90;99.90;;;;;;5033375;28;19912;-83
2022/09/25 11:36:40;;;;;;;;;;;20.00;99.90;;;;;;5033334;28;19913;-82
2022/09/25 11:42:06;;;;;;;;;;;20.10;99.90;;;;;;5033820;28;19947;-83
2022/09/25 11:44:33;;;;;;;;;;;20.00;99.90;;;;;;5032625;28;19923;-82
2022/09/25 11:47:04;;;;;;;;;;;20.10;99.30;;;;;;5032321;28;20349;-84
2022/09/25 11:49:35;;;;;;;;;;;20.30;99.40;;;;;;5031868;28;20016;-83
2022/09/25 11:52:21;;;;;;;;;;;20.40;98.60;;;;;;5032218;28;19913;-83
2022/09/25 11:54:49;;;;;;;;;;;20.60;95.60;;;;;;5032092;28;20012;-84
2022/09/25 11:57:24;;;;;;;;;;;20.90;97.40;;;;;;5014840;28;19909;-84
2022/09/25 12:00:06;;;;;;;;;;;21.10;96.30;;;;;;5014531;28;20487;-83
2022/09/25 12:02:50;;;;;;;;;;;20.80;94.60;;;;;;5019921;28;19913;-83
2022/09/25 12:05:26;;;;;;;;;;;20.60;94.80;;;;;;5032492;28;19917;-83
2022/09/25 12:07:54;;;;;;;;;;;20.40;97.20;;;;;;5031966;28;20295;-83
2022/09/25 12:10:28;;;;;;;;;;;20.40;97.90;;;;;;5032964;28;19910;-83
2022/09/25 12:13:04;;;;;;;;;;;20.50;98.40;;;;;;5031580;28;20000;-84
2022/09/25 12:15:41;;;;;;;;;;;20.60;95.70;;;;;;5033649;28;20284;-84
2022/09/25 12:18:10;;;;;;;;;;;20.50;95.30;;;;;;5035265;28;19999;-84
2022/09/25 12:20:48;;;;;;;;;;;20.70;94.70;;;;;;5036650;28;19913;-83
2022/09/25 12:23:28;;;;;;;;;;;21.00;95.60;;;;;;5035265;28;19910;-85
2022/09/25 12:26:01;;;;;;;;;;;21.20;95.20;;;;;;5035999;28;20286;-83
2022/09/25 12:28:26;;;;;;;;;;;21.00;94.40;;;;;;5035372;28;19909;-82
2022/09/25 12:30:55;;;;;;;;;;;20.90;95.10;;;;;;5035260;28;19916;-84
2022/09/25 12:33:26;;;;;;;;;;;20.70;95.90;;;;;;5034939;28;19920;-83
2022/09/25 12:36:03;;;;;;;;;;;20.80;96.10;;;;;;5034258;28;19917;-83
2022/09/25 12:38:31;;;;;;;;;;;21.10;97.20;;;;;;5034909;28;19916;-84
2022/09/25 12:40:57;;;;;;;;;;;21.60;93.50;;;;;;5034753;28;20003;-83
2022/09/25 12:43:25;;;;;;;;;;;22.00;93.70;;;;;;5035068;28;19924;-83
2022/09/25 12:45:53;;;;;;;;;;;22.20;93.20;;;;;;5035237;28;20006;-83
2022/09/25 12:48:23;;;;;;;;;;;22.20;93.70;;;;;;5034907;28;19932;-83
2022/09/25 12:50:48;;;;;;;;;;;21.60;91.50;;;;;;5034922;28;19909;-83
2022/09/25 12:53:24;;;;;;;;;;;21.20;93.00;;;;;;5034340;28;19909;-85
2022/09/25 12:55:53;;;;;;;;;;;21.00;94.50;;;;;;5035489;28;20004;-83
2022/09/25 12:58:20;;;;;;;;;;;21.00;94.50;;;;;;5034756;28;19909;-84
2022/09/25 13:00:49;;;;;;;;;;;21.00;94.30;;;;;;5034438;28;19909;-83
2022/09/25 13:03:21;;;;;;;;;;;20.90;94.20;;;;;;5034104;28;19909;-83
2022/09/25 13:05:50;;;;;;;;;;;20.50;93.00;;;;;;5035306;28;20368;-84
2022/09/25 13:08:22;;;;;;;;;;;20.30;93.70;;;;;;5034534;28;19916;-82
2022/09/25 13:10:52;;;;;;;;;;;20.10;94.10;;;;;;5034559;28;19909;-83
2022/09/25 13:13:23;;;;;;;;;;;20.10;94.60;;;;;;5034696;28;19913;-83
2022/09/25 13:15:59;;;;;;;;;;;20.20;94.10;;;;;;5035847;28;19909;-84
2022/09/25 13:18:26;;;;;;;;;;;20.40;94.00;;;;;;5036268;28;19948;-84
2022/09/25 13:20:55;;;;;;;;;;;20.30;86.40;;;;;;5034976;28;19948;-84
2022/09/25 13:23:27;;;;;;;;;;;20.30;86.60;;;;;;5035916;28;19966;-84
2022/09/25 13:25:58;;;;;;;;;;;20.30;85.90;;;;;;5033197;28;19948;-84
2022/09/25 13:28:26;;;;;;;;;;;20.60;90.50;;;;;;5034306;28;19913;-83
2022/09/25 13:31:11;;;;;;;;;;;21.20;90.20;;;;;;5034159;28;19940;-84
2022/09/25 13:33:42;;;;;;;;;;;22.50;90.90;;;;;;5034132;28;19917;-83
2022/09/25 13:36:09;;;;;;;;;;;22.80;92.20;;;;;;5032929;28;19919;-83
2022/09/25 13:41:22;;;;;;;;;;;21.40;90.90;;;;;;5035003;28;20289;-83
2022/09/25 13:43:48;;;;;;;;;;;20.80;91.20;;;;;;5033575;28;19909;-83
2022/09/25 13:46:18;;;;;;;;;;;20.50;91.80;;;;;;5034315;28;20328;-83
2022/09/25 13:48:44;;;;;;;;;;;20.50;92.90;;;;;;5035338;28;19992;-83
2022/09/25 13:51:18;;;;;;;;;;;20.60;92.20;;;;;;5034080;28;19956;-82
2022/09/25 13:54:03;;;;;;;;;;;20.50;91.40;;;;;;5035318;28;20375;-83
2022/09/25 13:56:40;;;;;;;;;;;20.50;91.70;;;;;;5033358;28;19963;-83
2022/09/25 13:59:11;;;;;;;;;;;20.40;91.80;;;;;;5034175;28;19909;-82
2022/09/25 14:01:56;;;;;;;;;;;20.10;91.60;;;;;;5033315;28;19916;-83
2022/09/25 14:04:26;;;;;;;;;;;19.90;92.50;;;;;;5034161;28;19913;-84
2022/09/25 14:06:54;;;;;;;;;;;19.70;93.00;;;;;;5033493;28;19910;-84
2022/09/25 14:09:21;;;;;;;;;;;19.50;92.40;;;;;;5033278;28;20016;-82
2022/09/25 14:11:54;;;;;;;;;;;19.40;93.10;;;;;;5033054;28;19909;-84
2022/09/25 14:14:28;;;;;;;;;;;20.80;95.60;;;;;;5032931;28;19971;-83
2022/09/25 14:16:57;;;;;;;;;;;23.90;90.50;;;;;;5032484;28;20375;-84
2022/09/25 14:19:34;;;;;;;;;;;26.80;79.60;;;;;;5033105;28;19910;-84
2022/09/25 14:22:01;;;;;;;;;;;28.40;66.80;;;;;;5034263;28;19915;-84
2022/09/25 14:24:28;;;;;;;;;;;29.90;58.50;;;;;;5032739;28;19920;-84
2022/09/25 14:26:54;;;;;;;;;;;31.30;52.80;;;;;;5032054;28;19910;-84
2022/09/25 14:29:24;;;;;;;;;;;32.20;46.50;;;;;;5033881;28;19913;-84
2022/09/25 14:32:01;;;;;;;;;;;33.30;44.10;;;;;;5032493;28;20019;-83
2022/09/25 14:34:39;;;;;;;;;;;34.30;42.50;;;;;;5033779;28;19909;-85
2022/09/25 14:37:23;;;;;;;;;;;35.30;39.90;;;;;;5033311;28;19928;-87
2022/09/25 14:40:07;;;;;;;;;;;36.30;38.20;;;;;;5033390;28;19913;-84
2022/09/25 14:42:39;;;;;;;;;;;37.00;35.00;;;;;;5032560;28;19909;-84
2022/09/25 14:45:08;;;;;;;;;;;36.70;34.90;;;;;;5032113;28;19979;-85
2022/09/25 14:47:36;;;;;;;;;;;36.90;34.10;;;;;;5031947;28;19932;-85